createdAt,value
2023-04-08T00:00:22.529Z,7.16
2023-04-08T00:02:24.433Z,7.22
2023-04-08T00:04:26.492Z,7.22
2023-04-08T00:06:28.043Z,7.24
2023-04-08T00:08:29.570Z,7.24
2023-04-08T00:10:31.172Z,7.27
2023-04-08T00:12:33.055Z,7.27
2023-04-08T00:14:34.977Z,7.24
2023-04-08T00:16:36.494Z,7.23
2023-04-08T00:18:38.560Z,7.27
2023-04-08T00:20:40.056Z,7.31
2023-04-08T00:22:41.599Z,7.32
2023-04-08T00:24:43.162Z,7.36
2023-04-08T00:26:44.626Z,7.35
2023-04-08T00:28:46.916Z,7.33
2023-04-08T00:30:48.465Z,7.31
2023-04-08T00:32:50.118Z,7.32
2023-04-08T00:34:51.689Z,7.26
2023-04-08T00:36:53.180Z,7.27
2023-04-08T00:38:54.646Z,7.29
2023-04-08T00:40:56.119Z,7.27
2023-04-08T00:42:58.511Z,7.22
2023-04-08T00:45:00.018Z,7.24
2023-04-08T00:47:01.492Z,7.27
2023-04-08T00:49:03.140Z,7.26
2023-04-08T00:51:04.762Z,7.26
2023-04-08T00:53:06.248Z,7.26
2023-04-08T00:55:07.920Z,7.28
2023-04-08T00:57:09.413Z,7.30
2023-04-08T00:59:10.970Z,7.18
2023-04-08T01:01:17.458Z,7.08
2023-04-08T01:03:21.194Z,7.00
2023-04-08T01:05:25.984Z,6.97
2023-04-08T01:07:28.399Z,6.94
2023-04-08T01:09:30.520Z,6.98
2023-04-08T01:11:33.101Z,7.00
2023-04-08T01:13:36.069Z,6.95
2023-04-08T01:15:39.167Z,6.98
2023-04-08T01:17:41.191Z,7.02
2023-04-08T01:19:44.999Z,7.05
2023-04-08T01:21:46.542Z,7.03
2023-04-08T01:24:02.286Z,7.04
2023-04-08T01:26:03.834Z,7.09
2023-04-08T01:28:12.300Z,7.15
2023-04-08T01:30:13.825Z,7.17
2023-04-08T01:32:15.468Z,7.21
2023-04-08T01:34:17.120Z,7.23
2023-04-08T01:36:18.747Z,7.23
2023-04-08T01:38:20.716Z,7.26
2023-04-08T01:40:22.124Z,7.26
2023-04-08T01:42:24.234Z,7.26
2023-04-08T01:44:26.304Z,7.22
2023-04-08T01:46:27.858Z,7.21
2023-04-08T01:48:29.476Z,7.22
2023-04-08T01:50:31.012Z,7.12
2023-04-08T01:52:32.876Z,7.09
2023-04-08T01:54:38.168Z,7.06
2023-04-08T01:56:40.491Z,7.05
2023-04-08T01:58:42.488Z,7.09
2023-04-08T02:00:44.066Z,7.04
2023-04-08T02:02:47.260Z,7.05
2023-04-08T02:04:49.003Z,7.02
2023-04-08T02:06:50.869Z,7.03
2023-04-08T02:08:52.640Z,7.12
2023-04-08T02:10:54.283Z,7.15
2023-04-08T02:12:55.799Z,7.23
2023-04-08T02:14:57.948Z,7.07
2023-04-08T02:17:06.311Z,6.67
2023-04-08T02:19:12.331Z,6.04
2023-04-08T02:21:14.746Z,6.04
2023-04-08T02:23:18.775Z,5.77
2023-04-08T02:25:22.347Z,5.58
2023-04-08T02:27:24.028Z,5.30
2023-04-08T02:29:25.715Z,5.21
2023-04-08T02:31:27.250Z,5.36
2023-04-08T02:33:28.788Z,5.54
2023-04-08T02:35:30.582Z,5.33
2023-04-08T02:37:32.428Z,4.84
2023-04-08T02:39:33.898Z,4.55
2023-04-08T02:41:35.468Z,4.63
2023-04-08T02:43:36.969Z,4.78
2023-04-08T02:45:39.262Z,5.04
2023-04-08T02:47:40.871Z,5.34
2023-04-08T02:49:42.387Z,5.31
2023-04-08T02:51:43.864Z,4.87
2023-04-08T02:53:45.385Z,4.62
2023-04-08T02:55:46.922Z,4.46
2023-04-08T02:57:49.037Z,4.56
2023-04-08T02:59:50.551Z,4.65
2023-04-08T03:01:52.153Z,4.80
2023-04-08T03:03:53.853Z,4.79
2023-04-08T03:05:56.014Z,4.90
2023-04-08T03:07:58.391Z,5.03
2023-04-08T03:09:59.907Z,5.10
2023-04-08T03:12:02.770Z,4.95
2023-04-08T03:14:04.483Z,5.02
2023-04-08T03:16:06.316Z,5.02
2023-04-08T03:18:07.854Z,5.15
2023-04-08T03:20:09.496Z,5.22
2023-04-08T03:22:11.251Z,5.35
2023-04-08T03:24:12.762Z,5.52
2023-04-08T03:26:14.257Z,5.72
2023-04-08T03:28:15.963Z,5.90
2023-04-08T03:30:17.724Z,6.03
2023-04-08T03:32:19.325Z,6.13
2023-04-08T03:34:20.918Z,6.25
2023-04-08T03:36:22.432Z,6.34
2023-04-08T03:38:23.929Z,6.42
2023-04-08T03:40:25.560Z,6.51
2023-04-08T03:42:27.355Z,6.53
2023-04-08T03:44:28.845Z,6.50
2023-04-08T03:46:30.514Z,6.47
2023-04-08T03:48:32.516Z,6.28
2023-04-08T03:50:34.002Z,6.21
2023-04-08T03:52:35.577Z,6.22
2023-04-08T03:54:37.092Z,6.26
2023-04-08T03:56:38.531Z,6.26
2023-04-08T03:58:40.105Z,6.35
2023-04-08T04:00:41.634Z,6.48
2023-04-08T04:02:43.245Z,6.56
2023-04-08T04:04:44.863Z,6.62
2023-04-08T04:06:46.312Z,6.69
2023-04-08T04:08:48.246Z,6.71
2023-04-08T04:10:49.948Z,6.78
2023-04-08T04:12:51.560Z,6.79
2023-04-08T04:14:53.079Z,6.76
2023-04-08T04:16:54.586Z,6.75
2023-04-08T04:18:56.230Z,6.76
2023-04-08T04:20:57.784Z,6.81
2023-04-08T04:22:59.280Z,6.77
2023-04-08T04:25:00.856Z,6.74
2023-04-08T04:27:02.399Z,6.58
2023-04-08T04:29:03.897Z,6.25
2023-04-08T04:31:05.544Z,6.00
2023-04-08T04:33:07.449Z,5.79
2023-04-08T04:35:12.036Z,5.40
2023-04-08T04:37:13.858Z,5.18
2023-04-08T04:39:15.756Z,5.05
2023-04-08T04:41:17.426Z,5.02
2023-04-08T04:43:18.985Z,4.87
2023-04-08T04:45:20.485Z,4.84
2023-04-08T04:47:22.060Z,4.80
2023-04-08T04:49:23.570Z,4.69
2023-04-08T04:51:25.079Z,4.60
2023-04-08T04:53:26.673Z,4.79
2023-04-08T04:55:28.230Z,5.06
2023-04-08T04:57:29.723Z,5.37
2023-04-08T04:59:31.185Z,5.62
2023-04-08T05:01:32.763Z,5.81
2023-04-08T05:03:34.401Z,6.01
2023-04-08T05:05:36.036Z,6.17
2023-04-08T05:07:37.838Z,6.32
2023-04-08T05:09:39.322Z,6.38
2023-04-08T05:11:40.885Z,6.50
2023-04-08T05:13:42.422Z,6.63
2023-04-08T05:15:45.806Z,6.69
2023-04-08T05:17:47.591Z,6.62
2023-04-08T05:19:49.174Z,6.44
2023-04-08T05:21:50.969Z,6.40
2023-04-08T05:23:53.911Z,6.11
2023-04-08T05:25:55.470Z,6.02
2023-04-08T05:27:57.518Z,6.10
2023-04-08T05:29:59.111Z,6.06
2023-04-08T05:32:00.642Z,6.18
2023-04-08T05:34:02.177Z,6.28
2023-04-08T05:36:03.723Z,6.24
2023-04-08T05:38:05.216Z,6.34
2023-04-08T05:40:06.996Z,6.16
2023-04-08T05:42:08.492Z,6.00
2023-04-08T05:44:10.034Z,6.12
2023-04-08T05:46:11.723Z,6.20
2023-04-08T05:48:13.263Z,6.27
2023-04-08T05:50:14.888Z,6.36
2023-04-08T05:52:16.777Z,6.40
2023-04-08T05:54:18.578Z,6.39
2023-04-08T05:56:20.046Z,6.33
2023-04-08T05:58:21.575Z,6.15
2023-04-08T06:00:23.112Z,5.89
2023-04-08T06:02:24.763Z,5.83
2023-04-08T06:04:26.562Z,5.77
2023-04-08T06:06:28.168Z,5.69
2023-04-08T06:08:29.936Z,5.70
2023-04-08T06:10:31.450Z,5.66
2023-04-08T06:12:35.280Z,5.61
2023-04-08T06:14:36.899Z,5.77
2023-04-08T06:16:38.500Z,5.95
2023-04-08T06:18:39.957Z,6.09
2023-04-08T06:20:41.485Z,6.19
2023-04-08T06:22:43.005Z,6.35
2023-04-08T06:24:44.566Z,6.40
2023-04-08T06:26:46.102Z,6.59
2023-04-08T06:28:47.612Z,6.86
2023-04-08T06:30:49.125Z,6.95
2023-04-08T06:32:50.750Z,7.09
2023-04-08T06:34:52.320Z,7.18
2023-04-08T06:36:53.819Z,7.33
2023-04-08T06:38:55.323Z,7.54
2023-04-08T06:40:56.781Z,7.77
2023-04-08T06:42:58.324Z,8.00
2023-04-08T06:44:59.943Z,8.09
2023-04-08T06:47:01.431Z,8.03
2023-04-08T06:49:04.644Z,8.10
2023-04-08T06:51:07.896Z,8.11
2023-04-08T06:53:09.375Z,8.08
2023-04-08T06:55:11.183Z,8.15
2023-04-08T06:57:12.757Z,8.30
2023-04-08T06:59:14.344Z,8.37
2023-04-08T07:01:16.727Z,8.40
2023-04-08T07:03:18.375Z,8.30
2023-04-08T07:05:19.980Z,8.31
2023-04-08T07:07:21.469Z,8.36
2023-04-08T07:09:23.015Z,8.30
2023-04-08T07:11:24.605Z,8.31
2023-04-08T07:13:26.107Z,8.44
2023-04-08T07:15:27.543Z,8.57
2023-04-08T07:17:29.146Z,8.68
2023-04-08T07:19:31.033Z,8.78
2023-04-08T07:21:32.579Z,8.84
2023-04-08T07:23:34.120Z,8.91
2023-04-08T07:25:35.654Z,8.95
2023-04-08T07:27:37.243Z,8.96
2023-04-08T07:29:38.675Z,9.03
2023-04-08T07:31:40.142Z,9.07
2023-04-08T07:33:41.794Z,9.11
2023-04-08T07:35:43.384Z,8.98
2023-04-08T07:37:44.908Z,8.98
2023-04-08T07:39:46.471Z,8.99
2023-04-08T07:41:47.972Z,9.13
2023-04-08T07:43:49.494Z,9.17
2023-04-08T07:45:51.451Z,9.05
2023-04-08T07:47:53.082Z,8.55
2023-04-08T07:49:54.696Z,8.26
2023-04-08T07:51:56.266Z,8.13
2023-04-08T07:53:58.203Z,8.31
2023-04-08T07:55:59.721Z,8.55
2023-04-08T07:58:01.563Z,8.82
2023-04-08T08:00:04.844Z,8.82
2023-04-08T08:02:06.696Z,8.91
2023-04-08T08:04:08.523Z,9.04
2023-04-08T08:06:11.689Z,9.18
2023-04-08T08:08:13.184Z,9.25
2023-04-08T08:10:14.834Z,9.30
2023-04-08T08:12:16.387Z,9.07
2023-04-08T08:14:17.882Z,8.95
2023-04-08T08:16:19.609Z,8.79
2023-04-08T08:18:21.169Z,8.84
2023-04-08T08:20:22.791Z,8.73
2023-04-08T08:22:24.301Z,8.77
2023-04-08T08:24:26.117Z,8.95
2023-04-08T08:26:28.769Z,9.15
2023-04-08T08:28:30.282Z,9.29
2023-04-08T08:32:33.514Z,9.39
2023-04-08T08:34:34.983Z,9.45
2023-04-08T08:36:36.524Z,9.27
2023-04-08T08:38:38.062Z,9.38
2023-04-08T08:40:39.725Z,9.19
2023-04-08T08:42:41.236Z,9.28
2023-04-08T08:44:42.694Z,9.40
2023-04-08T08:46:44.566Z,9.36
2023-04-08T08:48:46.365Z,9.21
2023-04-08T08:50:47.915Z,9.42
2023-04-08T08:52:50.335Z,9.34
2023-04-08T08:54:58.278Z,9.38
2023-04-08T08:56:59.739Z,9.53
2023-04-08T08:59:01.245Z,9.71
2023-04-08T09:01:02.803Z,9.78
2023-04-08T09:03:16.729Z,9.94
2023-04-08T09:05:18.625Z,10.06
2023-04-08T09:07:20.305Z,10.06
2023-04-08T09:09:21.791Z,10.22
2023-04-08T09:11:23.284Z,10.27
2023-04-08T09:13:25.653Z,10.41
2023-04-08T09:15:27.481Z,10.57
2023-04-08T09:17:33.748Z,10.70
2023-04-08T09:19:35.253Z,10.75
2023-04-08T09:21:36.961Z,10.48
2023-04-08T09:23:41.565Z,10.39
2023-04-08T09:25:43.112Z,10.57
2023-04-08T09:27:44.563Z,10.70
2023-04-08T09:29:46.135Z,10.82
2023-04-08T09:31:47.673Z,11.10
2023-04-08T09:33:54.184Z,11.13
2023-04-08T09:35:55.995Z,10.53
2023-04-08T09:37:57.479Z,10.38
2023-04-08T09:40:17.538Z,10.54
2023-04-08T09:42:18.975Z,10.35
2023-04-08T09:44:22.277Z,10.41
2023-04-08T09:46:28.236Z,10.50
2023-04-08T09:48:30.696Z,10.51
2023-04-08T09:50:32.510Z,10.99
2023-04-08T09:52:34.459Z,11.25
2023-04-08T09:54:36.162Z,10.98
2023-04-08T09:56:41.070Z,10.28
2023-04-08T09:58:47.363Z,9.80
2023-04-08T10:00:51.044Z,9.95
2023-04-08T10:03:08.498Z,10.40
2023-04-08T10:05:10.984Z,10.75
2023-04-08T10:07:13.173Z,10.85
2023-04-08T10:09:14.806Z,10.58
2023-04-08T10:11:16.288Z,10.55
2023-04-08T10:13:17.768Z,10.64
2023-04-08T10:15:25.452Z,10.85
2023-04-08T10:17:36.110Z,11.23
2023-04-08T10:19:41.825Z,11.17
2023-04-08T10:21:48.130Z,11.03
2023-04-08T10:23:59.097Z,10.86
2023-04-08T10:26:01.195Z,10.50
2023-04-08T10:28:23.624Z,10.54
2023-04-08T10:30:28.125Z,10.89
2023-04-08T10:32:30.313Z,11.19
2023-04-08T10:34:31.852Z,11.24
2023-04-08T10:36:33.366Z,11.24
2023-04-08T10:38:34.936Z,11.38
2023-04-08T10:40:39.529Z,11.48
2023-04-08T10:42:41.068Z,11.56
2023-04-08T10:44:44.570Z,11.71
2023-04-08T10:46:46.834Z,11.86
2023-04-08T10:48:59.694Z,12.27
2023-04-08T10:51:02.103Z,12.43
2023-04-08T10:53:03.730Z,12.39
2023-04-08T10:55:05.634Z,12.24
2023-04-08T10:57:07.529Z,12.13
2023-04-08T10:59:09.001Z,12.10
2023-04-08T11:01:10.597Z,12.08
2023-04-08T11:03:14.340Z,11.97
2023-04-08T11:05:17.317Z,11.98
2023-04-08T11:07:20.333Z,11.91
2023-04-08T11:09:21.816Z,12.02
2023-04-08T11:11:23.983Z,12.16
2023-04-08T11:13:25.488Z,12.23
2023-04-08T11:15:27.105Z,12.27
2023-04-08T11:17:29.093Z,12.21
2023-04-08T11:19:30.718Z,11.97
2023-04-08T11:21:32.800Z,12.03
2023-04-08T11:23:34.266Z,11.95
2023-04-08T11:25:35.818Z,12.02
2023-04-08T11:27:37.682Z,12.13
2023-04-08T11:29:39.736Z,12.05
2023-04-08T11:31:41.716Z,12.16
2023-04-08T11:33:47.709Z,12.12
2023-04-08T11:35:51.264Z,12.14
2023-04-08T11:37:52.948Z,12.22
2023-04-08T11:39:57.763Z,12.32
2023-04-08T11:41:59.621Z,12.45
2023-04-08T11:44:01.365Z,12.54
2023-04-08T11:46:12.574Z,12.82
2023-04-08T11:48:15.711Z,13.04
2023-04-08T11:50:26.251Z,12.96
2023-04-08T11:52:46.418Z,12.84
2023-04-08T11:54:47.994Z,12.81
2023-04-08T11:56:49.677Z,12.72
2023-04-08T11:58:51.816Z,12.60
2023-04-08T12:00:53.751Z,12.55
2023-04-08T12:02:55.417Z,12.61
2023-04-08T12:04:57.053Z,12.58
2023-04-08T12:06:58.658Z,12.56
2023-04-08T12:09:00.560Z,12.59
2023-04-08T12:11:16.563Z,12.55
2023-04-08T12:13:21.052Z,12.58
2023-04-08T12:15:22.742Z,12.62
2023-04-08T12:17:24.305Z,12.52
2023-04-08T12:19:25.864Z,12.43
2023-04-08T12:21:28.036Z,12.34
2023-04-08T12:23:29.556Z,12.48
2023-04-08T12:25:31.766Z,12.51
2023-04-08T12:27:33.578Z,12.55
2023-04-08T12:29:35.156Z,12.53
2023-04-08T12:31:36.797Z,12.32
2023-04-08T12:33:38.298Z,12.09
2023-04-08T12:35:39.891Z,12.16
2023-04-08T12:37:41.720Z,12.25
2023-04-08T12:39:43.238Z,12.01
2023-04-08T12:41:44.746Z,12.01
2023-04-08T12:43:46.307Z,12.12
2023-04-08T12:45:48.894Z,11.94
2023-04-08T12:47:50.461Z,12.00
2023-04-08T12:49:52.123Z,12.02
2023-04-08T12:51:53.820Z,12.14
2023-04-08T12:53:55.371Z,12.14
2023-04-08T12:55:57.598Z,12.02
2023-04-08T12:57:59.137Z,11.87
2023-04-08T13:00:00.621Z,11.89
2023-04-08T13:02:02.207Z,11.88
2023-04-08T13:04:03.809Z,11.88
2023-04-08T13:06:05.384Z,11.87
2023-04-08T13:08:06.848Z,11.98
2023-04-08T13:10:08.728Z,12.16
2023-04-08T13:12:12.185Z,12.39
2023-04-08T13:14:13.792Z,12.54
2023-04-08T13:16:15.586Z,12.57
2023-04-08T13:18:17.098Z,12.45
2023-04-08T13:20:18.700Z,12.56
2023-04-08T13:22:20.377Z,12.65
2023-04-08T13:24:21.942Z,12.72
2023-04-08T13:26:24.240Z,12.73
2023-04-08T13:28:25.843Z,12.72
2023-04-08T13:30:27.352Z,12.67
2023-04-08T13:32:28.844Z,12.40
2023-04-08T13:34:30.556Z,12.38
2023-04-08T13:36:32.353Z,12.47
2023-04-08T13:38:33.832Z,12.59
2023-04-08T13:40:35.624Z,12.71
2023-04-08T13:42:37.534Z,12.78
2023-04-08T13:44:39.353Z,12.78
2023-04-08T13:46:40.980Z,12.79
2023-04-08T13:48:42.496Z,12.92
2023-04-08T13:50:44.188Z,13.00
2023-04-08T13:52:45.732Z,13.11
2023-04-08T13:54:47.271Z,13.13
2023-04-08T13:56:49.104Z,13.19
2023-04-08T13:58:56.769Z,13.30
2023-04-08T14:00:59.112Z,13.60
2023-04-08T14:03:00.629Z,13.68
2023-04-08T14:05:02.556Z,13.68
2023-04-08T14:07:04.066Z,13.65
2023-04-08T14:09:05.822Z,13.82
2023-04-08T14:11:07.277Z,13.84
2023-04-08T14:13:08.837Z,13.66
2023-04-08T14:15:29.195Z,13.55
2023-04-08T14:17:31.034Z,13.36
2023-04-08T14:19:32.602Z,13.17
2023-04-08T14:21:34.118Z,13.00
2023-04-08T14:23:35.902Z,12.85
2023-04-08T14:25:37.385Z,12.78
2023-04-08T14:27:50.972Z,12.93
2023-04-08T14:29:58.763Z,12.96
2023-04-08T14:32:00.277Z,12.82
2023-04-08T14:34:02.919Z,12.95
2023-04-08T14:36:04.384Z,13.00
2023-04-08T14:38:05.948Z,12.81
2023-04-08T14:40:07.794Z,12.93
2023-04-08T14:42:09.296Z,13.04
2023-04-08T14:44:10.890Z,13.11
2023-04-08T14:46:12.367Z,13.10
2023-04-08T14:48:13.855Z,12.79
2023-04-08T14:50:16.183Z,12.51
2023-04-08T14:52:17.672Z,12.25
2023-04-08T14:54:19.208Z,12.21
2023-04-08T14:56:21.074Z,11.98
2023-04-08T14:58:23.135Z,11.91
2023-04-08T15:00:24.677Z,11.82
2023-04-08T15:02:26.358Z,11.79
2023-04-08T15:04:28.047Z,11.82
2023-04-08T15:06:30.723Z,11.80
2023-04-08T15:08:32.411Z,11.86
2023-04-08T15:10:33.861Z,11.88
2023-04-08T15:12:36.492Z,11.92
2023-04-08T15:14:37.983Z,11.92
2023-04-08T15:16:39.580Z,11.78
2023-04-08T15:18:41.202Z,11.77
2023-04-08T15:20:42.713Z,11.78
2023-04-08T15:22:44.632Z,11.78
2023-04-08T15:24:47.934Z,11.81
2023-04-08T15:26:49.650Z,11.86
2023-04-08T15:28:52.743Z,11.90
2023-04-08T15:30:54.499Z,11.92
2023-04-08T15:32:57.521Z,11.94
2023-04-08T15:34:59.560Z,11.99
2023-04-08T15:37:02.215Z,12.04
2023-04-08T15:39:03.767Z,12.07
2023-04-08T15:41:05.501Z,12.10
2023-04-08T15:43:10.158Z,11.99
2023-04-08T15:45:11.979Z,11.76
2023-04-08T15:47:13.563Z,11.63
2023-04-08T15:49:15.083Z,11.46
2023-04-08T15:51:16.982Z,11.27
2023-04-08T15:53:18.446Z,11.29
2023-04-08T15:55:19.968Z,11.33
2023-04-08T15:57:26.552Z,11.20
2023-04-08T15:59:31.298Z,10.93
2023-04-08T16:01:33.408Z,10.74
2023-04-08T16:03:35.185Z,10.37
2023-04-08T16:05:39.274Z,10.29
2023-04-08T16:07:42.154Z,10.07
2023-04-08T16:09:43.809Z,10.10
2023-04-08T16:11:45.325Z,10.00
2023-04-08T16:13:47.231Z,9.95
2023-04-08T16:15:48.834Z,10.13
2023-04-08T16:17:51.658Z,10.31
2023-04-08T16:19:53.217Z,10.40
2023-04-08T16:21:54.713Z,10.49
2023-04-08T16:23:56.455Z,10.45
2023-04-08T16:25:57.899Z,10.43
2023-04-08T16:27:59.440Z,10.44
2023-04-08T16:30:01.461Z,10.50
2023-04-08T16:32:03.806Z,10.47
2023-04-08T16:34:05.312Z,10.41
2023-04-08T16:36:07.126Z,10.31
2023-04-08T16:38:08.723Z,10.41
2023-04-08T16:40:10.422Z,10.51
2023-04-08T16:42:12.265Z,10.66
2023-04-08T16:44:14.767Z,10.78
2023-04-08T16:46:16.810Z,10.79
2023-04-08T16:48:18.420Z,10.82
2023-04-08T16:50:19.935Z,10.88
2023-04-08T16:52:21.737Z,10.91
2023-04-08T16:54:23.205Z,10.99
2023-04-08T16:56:24.904Z,11.04
2023-04-08T16:58:26.459Z,11.05
2023-04-08T17:00:28.389Z,11.04
2023-04-08T17:02:29.989Z,11.02
2023-04-08T17:04:31.539Z,10.94
2023-04-08T17:06:35.785Z,10.82
2023-04-08T17:08:37.514Z,10.76
2023-04-08T17:10:39.529Z,10.69
2023-04-08T17:12:41.704Z,10.62
2023-04-08T17:14:43.198Z,10.52
2023-04-08T17:16:44.714Z,10.42
2023-04-08T17:18:46.526Z,10.40
2023-04-08T17:20:48.106Z,10.39
2023-04-08T17:22:50.010Z,10.41
2023-04-08T17:24:54.165Z,10.45
2023-04-08T17:26:57.715Z,10.47
2023-04-08T17:28:59.323Z,10.45
2023-04-08T17:31:01.628Z,10.37
2023-04-08T17:33:03.768Z,10.23
2023-04-08T17:35:05.312Z,10.20
2023-04-08T17:37:07.028Z,10.13
2023-04-08T17:39:08.537Z,10.11
2023-04-08T17:41:13.412Z,10.13
2023-04-08T17:43:16.580Z,10.19
2023-04-08T17:45:18.215Z,10.24
2023-04-08T17:47:21.143Z,10.21
2023-04-08T17:49:22.992Z,10.22
2023-04-08T17:51:24.549Z,10.19
2023-04-08T17:53:26.157Z,10.19
2023-04-08T17:55:27.764Z,10.19
2023-04-08T17:57:29.394Z,10.11
2023-04-08T17:59:31.141Z,10.09
2023-04-08T18:01:32.720Z,9.98
2023-04-08T18:03:34.382Z,9.72
2023-04-08T18:05:36.430Z,9.55
2023-04-08T18:07:37.979Z,9.47
2023-04-08T18:09:40.918Z,9.33
2023-04-08T18:11:42.423Z,9.28
2023-04-08T18:13:44.038Z,9.07
2023-04-08T18:15:46.304Z,8.90
2023-04-08T18:17:47.846Z,8.64
2023-04-08T18:19:49.372Z,8.45
2023-04-08T18:21:51.002Z,8.42
2023-04-08T18:23:52.813Z,8.40
2023-04-08T18:25:54.587Z,8.43
2023-04-08T18:27:56.109Z,8.47
2023-04-08T18:29:57.554Z,8.54
2023-04-08T18:31:59.040Z,8.47
2023-04-08T18:34:00.561Z,8.46
2023-04-08T18:36:12.664Z,8.38
2023-04-08T18:38:14.369Z,8.53
2023-04-08T18:40:15.872Z,8.61
2023-04-08T18:42:17.475Z,8.68
2023-04-08T18:44:19.268Z,8.77
2023-04-08T18:46:20.964Z,8.91
2023-04-08T18:48:22.447Z,9.06
2023-04-08T18:50:23.936Z,9.20
2023-04-08T18:52:25.463Z,9.25
2023-04-08T18:54:27.507Z,9.10
2023-04-08T18:56:29.086Z,9.00
2023-04-08T18:58:31.539Z,8.81
2023-04-08T19:00:33.110Z,8.65
2023-04-08T19:02:35.035Z,8.72
2023-04-08T19:04:38.650Z,8.90
2023-04-08T19:06:40.283Z,9.08
2023-04-08T19:08:41.928Z,9.18
2023-04-08T19:10:43.416Z,9.21
2023-04-08T19:12:45.022Z,9.27
2023-04-08T19:14:46.694Z,9.24
2023-04-08T19:16:48.183Z,9.21
2023-04-08T19:18:49.753Z,9.14
2023-04-08T19:20:51.182Z,8.91
2023-04-08T19:22:52.746Z,8.81
2023-04-08T19:24:55.195Z,8.92
2023-04-08T19:26:56.842Z,9.09
2023-04-08T19:28:58.356Z,9.22
2023-04-08T19:31:00.329Z,9.34
2023-04-08T19:33:01.931Z,9.31
2023-04-08T19:35:03.669Z,9.06
2023-04-08T19:37:06.118Z,8.90
2023-04-08T19:39:07.605Z,8.73
2023-04-08T19:41:09.211Z,8.65
2023-04-08T19:43:10.843Z,8.55
2023-04-08T19:45:12.364Z,8.47
2023-04-08T19:47:14.077Z,8.37
2023-04-08T19:49:15.661Z,8.40
2023-04-08T19:51:19.055Z,8.48
2023-04-08T19:53:20.557Z,8.42
2023-04-08T19:55:22.200Z,8.50
2023-04-08T19:57:24.223Z,8.55
2023-04-08T19:59:26.056Z,8.64
2023-04-08T20:01:27.660Z,8.73
2023-04-08T20:03:29.382Z,8.85
2023-04-08T20:05:31.328Z,8.69
2023-04-08T20:07:32.830Z,8.42
2023-04-08T20:09:34.378Z,8.40
2023-04-08T20:11:36.005Z,8.30
2023-04-08T20:13:37.643Z,8.28
2023-04-08T20:15:39.544Z,8.33
2023-04-08T20:17:41.086Z,8.37
2023-04-08T20:19:42.713Z,8.37
2023-04-08T20:21:44.554Z,8.33
2023-04-08T20:23:46.420Z,8.34
2023-04-08T20:25:48.013Z,8.42
2023-04-08T20:27:51.464Z,8.38
2023-04-08T20:29:53.025Z,8.39
2023-04-08T20:31:54.835Z,8.46
2023-04-08T20:33:56.421Z,8.52
2023-04-08T20:35:57.949Z,8.45
2023-04-08T20:37:59.537Z,8.47
2023-04-08T20:40:01.033Z,8.58
2023-04-08T20:42:02.539Z,8.69
2023-04-08T20:44:06.164Z,8.79
2023-04-08T20:46:08.058Z,8.84
2023-04-08T20:50:28.656Z,8.83
2023-04-08T20:52:30.113Z,8.84
2023-04-08T20:54:31.838Z,8.71
2023-04-08T20:56:33.462Z,8.67
2023-04-08T20:58:34.940Z,8.66
2023-04-08T21:00:36.434Z,8.59
2023-04-08T21:02:38.237Z,8.56
2023-04-08T21:04:39.918Z,8.61
2023-04-08T21:06:42.221Z,8.70
2023-04-08T21:08:43.925Z,8.80
2023-04-08T21:10:45.507Z,8.89
2023-04-08T21:12:47.148Z,8.98
2023-04-08T21:14:50.887Z,9.04
2023-04-08T21:16:52.510Z,9.05
2023-04-08T21:18:54.072Z,9.05
2023-04-08T21:20:55.915Z,9.09
2023-04-08T21:22:59.024Z,9.18
2023-04-08T21:25:02.502Z,9.19
2023-04-08T21:27:04.046Z,9.16
2023-04-08T21:29:05.494Z,9.11
2023-04-08T21:31:10.337Z,9.08
2023-04-08T21:33:11.869Z,9.07
2023-04-08T21:35:13.448Z,9.09
2023-04-08T21:37:15.006Z,9.12
2023-04-08T21:39:16.467Z,9.15
2023-04-08T21:41:18.265Z,9.00
2023-04-08T21:43:19.772Z,8.91
2023-04-08T21:45:21.715Z,8.81
2023-04-08T21:47:23.244Z,8.88
2023-04-08T21:49:25.063Z,8.92
2023-04-08T21:51:26.941Z,8.97
2023-04-08T21:53:28.453Z,9.05
2023-04-08T21:55:30.026Z,9.11
2023-04-08T21:57:31.855Z,9.14
2023-04-08T21:59:33.374Z,9.17
2023-04-08T22:01:35.008Z,9.21
2023-04-08T22:03:36.569Z,9.20
2023-04-08T22:05:38.244Z,9.25
2023-04-08T22:07:39.733Z,9.25
2023-04-08T22:09:41.406Z,9.27
2023-04-08T22:11:42.885Z,9.33
2023-04-08T22:13:44.341Z,9.33
2023-04-08T22:15:45.828Z,9.35
2023-04-08T22:17:47.323Z,9.28
2023-04-08T22:19:48.843Z,9.26
2023-04-08T22:21:51.236Z,9.21
2023-04-08T22:23:52.765Z,9.21
2023-04-08T22:25:54.251Z,9.17
2023-04-08T22:27:56.158Z,9.17
2023-04-08T22:29:57.627Z,9.11
2023-04-08T22:31:59.095Z,9.10
2023-04-08T22:34:00.704Z,9.11
2023-04-08T22:36:02.289Z,9.04
2023-04-08T22:38:03.847Z,9.05
2023-04-08T22:40:05.666Z,8.97
2023-04-08T22:42:07.104Z,8.88
2023-04-08T22:44:08.598Z,8.74
2023-04-08T22:46:10.879Z,8.72
2023-04-08T22:48:12.364Z,8.69
2023-04-08T22:50:13.885Z,8.71
2023-04-08T22:52:15.577Z,8.64
2023-04-08T22:54:18.135Z,8.61
2023-04-08T22:56:19.625Z,8.57
2023-04-08T22:58:21.140Z,8.30
2023-04-08T23:00:22.736Z,8.17
2023-04-08T23:02:24.293Z,8.05
2023-04-08T23:04:26.021Z,7.96
2023-04-08T23:06:28.883Z,7.92
2023-04-08T23:08:30.402Z,7.92
2023-04-08T23:10:31.933Z,8.00
2023-04-08T23:12:33.517Z,8.07
2023-04-08T23:14:34.961Z,8.13
2023-04-08T23:16:36.442Z,8.18
2023-04-08T23:18:37.962Z,8.23
2023-04-08T23:20:39.413Z,8.28
2023-04-08T23:22:41.069Z,8.35
2023-04-08T23:24:42.593Z,8.43
2023-04-08T23:26:44.461Z,8.48
2023-04-08T23:28:46.124Z,8.49
2023-04-08T23:30:47.718Z,8.51
2023-04-08T23:32:49.255Z,8.54
2023-04-08T23:34:50.692Z,8.62
2023-04-08T23:36:52.146Z,8.61
2023-04-08T23:38:53.838Z,8.65
2023-04-08T23:40:55.381Z,8.64
2023-04-08T23:42:56.837Z,8.61
2023-04-08T23:44:58.309Z,8.63
2023-04-08T23:46:59.805Z,8.63
2023-04-08T23:49:01.281Z,8.65
2023-04-08T23:51:02.880Z,8.67
2023-04-08T23:53:04.349Z,8.73
2023-04-08T23:55:06.088Z,8.80
2023-04-08T23:57:07.627Z,8.84
2023-04-08T23:59:09.185Z,8.82
